logo
App data

The Agency: Chapter 1

“The Agency” is an episodic mystery kinetic novel. In a fictional dystopic sci-fi steampunk world still recovering from the destruction of a recent global war; a young man travels to the Imperial capital city to seek better fortunes for himself.
Store | Hub | SteamDB | Site
Developer: Sapphire Dragon Productions Publisher: Sapphire Dragon Productions
Genre: Adventure, Casual, Simulation
Languages: English
Tags: Adventure (27), Casual (22), Simulation (22), Visual Novel (19), Anime (17), Steampunk (16), Puzzle (14), Story Rich (14), Great Soundtrack (14), Detective (14), Mystery (14)
Category: Single-player, Steam Achievements, Steam Trading Cards, Steam Cloud
Release date: Jul 13, 2016
Price: $2.99
Owners: 20,000 .. 50,000
Followers: 892
Playtime total: 04:06 (average) 04:09 (median)

Steam Spy is still in beta, so expect major bugs.

Owners data:

Access restricted.

This feature is only available to users with special access rights. Sorry.

If you want to proceed, you need to register or log in first and then back Steam Spy on Patreon. Look for Indie or Pro pledge.

Don't forget to use the same email as on Steam Spy!

If you've recently backed Steam Spy on Patreon, please note, that it might take around 15 minutes for your access rights to sync. In most cases you'll need to re-login on Steam Spy too.

Audience in 2 weeks:

Access restricted.

This feature is only available to users with special access rights. Sorry.

If you want to proceed, you need to register or log in first and then back Steam Spy on Patreon. Look for Indie or Pro pledge.

Don't forget to use the same email as on Steam Spy!

If you've recently backed Steam Spy on Patreon, please note, that it might take around 15 minutes for your access rights to sync. In most cases you'll need to re-login on Steam Spy too.

Peak daily concurrent players:

CCU data courtesy of SteamDB. Used with permission.

Hourly concurrent players:

Followers over time

Access restricted.

This feature is only available to users with special access rights. Sorry.

If you want to proceed, you need to register or log in first and then back Steam Spy on Patreon. Look for Indie or Pro pledge.

Don't forget to use the same email as on Steam Spy!

If you've recently backed Steam Spy on Patreon, please note, that it might take around 15 minutes for your access rights to sync. In most cases you'll need to re-login on Steam Spy too.

Views for top 50 videos on YouTube for this game:

Games similar to this one:

# Game Release date
Price
Score rank
(Userscore / Metascore)
Owners
Players
Playtime (Median)
1 Twisty's Asylum Escapades Sep 28, 2016 $4.99N/A (N/A)0 .. 20,0000%00:00 (00:00)
2 True Fear: Forsaken Souls Part 1 Oct 19, 2016 $8.99N/A (N/A)50,000 .. 100,0000%00:00 (00:00)
3 LostWinds 2: Winter of the Melodias Mar 24, 2016 $9.99N/A (N/A)20,000 .. 50,0000%00:00 (00:00)
4 Ian's Eyes Sep 1, 2016 FreeN/A (N/A/36%)0 .. 20,0000%00:00 (00:00)
5 Borstal Mar 22, 2016 $2.99N/A (N/A)0 .. 20,0000%00:00 (00:00)
6 Father´s Island Jun 21, 2016 $4.99N/A (N/A)0 .. 20,0000%00:00 (00:00)
7 OddPlanet May 11, 2016 $5.99N/A (N/A)20,000 .. 50,0000%00:00 (00:00)
8 Starship Titanic Apr 2, 1998 $5.99N/A (N/A)0 .. 20,0000%00:00 (00:00)
9 GRAVEN The Purple Moon Prophecy Sep 29, 2016 $7.99N/A (N/A)0 .. 20,0000%00:00 (00:00)
10 EPΘCH May 18, 2016 $14.99N/A (N/A)0 .. 20,0000%00:00 (00:00)
11 Impact Winter May 22, 2017 N/AN/A (N/A/63%)20,000 .. 50,0000%00:00 (00:00)
12 Wild Romance Oct 19, 2016 $4.04N/A (N/A)20,000 .. 50,0000%00:00 (00:00)
13 Mystic Diary - Hidden Object Dec 8, 2016 $4.99N/A (N/A)0 .. 20,0000%00:00 (00:00)
14 Gabriel Knight 3: Blood of the Sacred, Blood of the Damned Nov 18, 1999 $5.99N/A (N/A/80%)50,000 .. 100,0000%00:00 (00:00)
15 Space Rangers: Quest Sep 5, 2016 $9.99N/A (N/A)0 .. 20,0000%00:00 (00:00)
16 Super Robot Jump Jump Mar 31, 2016 $4.99N/A (N/A)0 .. 20,0000%00:00 (00:00)
17 Sisyphus Reborn Dec 19, 2014 FreeN/A (N/A)50,000 .. 100,0000%00:00 (00:00)
18 Barrow Hill: The Dark Path Sep 22, 2016 $2.99N/A (N/A)0 .. 20,0000%00:00 (00:00)
19 PSYCHO-PASS: Mandatory Happiness Apr 24, 2017 $19.99N/A (N/A)0 .. 20,0000%00:00 (00:00)
20 Higurashi When They Cry Hou - Ch.4 Himatsubushi Oct 13, 2016 $5.99N/A (N/A)20,000 .. 50,0000%00:00 (00:00)
21 Dark Train Oct 25, 2016 $9.99N/A (N/A/77%)20,000 .. 50,0000%00:00 (00:00)
22 Happy Maze Dec 21, 2016 $4.99N/A (N/A)20,000 .. 50,0000%00:00 (00:00)
23 Wheely Nov 9, 2016 $4.99N/A (N/A)0 .. 20,0000%00:00 (00:00)
24 After Life - Story of a Father Nov 25, 2016 FreeN/A (N/A)0 .. 20,0000%00:00 (00:00)
25 Fibrillation HD Apr 11, 2017 $3.99N/A (N/A)20,000 .. 50,0000%00:00 (00:00)
26 Just Ignore Them Apr 28, 2017 $1.99N/A (N/A)20,000 .. 50,0000%00:00 (00:00)
27 Oracle Feb 28, 2017 $0.99N/A (N/A)50,000 .. 100,0000%00:00 (00:00)
28 Kith - Tales from the Fractured Plateaus Apr 5, 2017 FreeN/A (N/A)0 .. 20,0000%00:00 (00:00)
29 Planet RIX-13 May 12, 2017 $2.99N/A (N/A)0 .. 20,0000%00:00 (00:00)
30 Baobabs Mausoleum Ep.1: Ovnifagos Don´t Eat Flamingos Jul 6, 2017 $5.99N/A (N/A/69%)20,000 .. 50,0000%00:00 (00:00)
31 Fall of the New Age Premium Edition Jan 3, 2014 $6.99N/A (N/A)20,000 .. 50,0000%00:00 (00:00)
32 Sam & Max 202: Moai Better Blues Jan 11, 2008 $9.99N/A (N/A/80%)20,000 .. 50,0000%00:00 (00:00)
33 Sam & Max 204: Chariots of the Dogs Mar 14, 2008 $9.99N/A (N/A/85%)20,000 .. 50,0000%00:00 (00:00)
34 Bone: The Great Cow Race Apr 12, 2006 N/AN/A (N/A/76%)50,000 .. 100,0000%00:00 (00:00)
35 Secret Files 3 Sep 13, 2012 $9.99N/A (N/A/67%)20,000 .. 50,0000%00:00 (00:00)
36 Memento Mori 2 May 13, 2014 $24.99N/A (N/A/65%)0 .. 20,0000%00:00 (00:00)
37 Secret Files: Sam Peters Oct 18, 2013 $9.99N/A (N/A)20,000 .. 50,0000%00:00 (00:00)
38 Residue: Final Cut Aug 1, 2014 $1.99N/A (N/A)0 .. 20,0000%00:00 (00:00)
39 Princess Isabella - Return of the Curse Apr 15, 2014 $4.99N/A (N/A)0 .. 20,0000%00:00 (00:00)
40 Niko: Through The Dream Jul 10, 2015 $9.99N/A (N/A/74%)0 .. 20,0000%00:00 (00:00)
41 Corpse of Discovery Aug 25, 2015 $1.99N/A (N/A/49%)0 .. 20,0000%00:00 (00:00)
42 Theatre Of The Absurd Dec 10, 2012 $0.99N/A (N/A)20,000 .. 50,0000%00:00 (00:00)
43 Millionaire Manor Dec 17, 2010 $4.99N/A (N/A)20,000 .. 50,0000%00:00 (00:00)
44 A Golden Wake Oct 9, 2014 $9.99N/A (N/A/68%)20,000 .. 50,0000%00:00 (00:00)
45 Conarium Jun 6, 2017 $3.99N/A (N/A/71%)50,000 .. 100,0000%00:00 (00:00)
46 Battlestations Pacific May 12, 2009 N/AN/A (N/A/74%)200,000 .. 500,0000%00:00 (00:00)
47 Silence Nov 15, 2016 $19.99N/A (N/A/75%)100,000 .. 200,0000%00:00 (00:00)
48 Sword of the Samurai Oct 17, 2014 $6.99N/A (N/A)20,000 .. 50,0000%00:00 (00:00)
49 The Interactive Adventures of Dog Mendonça & Pizzaboy Mar 3, 2016 $14.99N/A (N/A)50,000 .. 100,0000%00:00 (00:00)
50 Pilot Brothers Dec 18, 2014 $4.99N/A (N/A)50,000 .. 100,0000%00:00 (00:00)
51 Warden: Melody of the Undergrowth Apr 8, 2016 $19.99N/A (N/A/59%)0 .. 20,0000%00:00 (00:00)
52 The Great Fusion Feb 25, 2015 $2.99N/A (N/A)20,000 .. 50,0000%00:00 (00:00)
53 Nevermind Sep 29, 2015 $19.99N/A (N/A)50,000 .. 100,0000%00:00 (00:00)
54 Atlantis 2: Beyond Atlantis Apr 17, 2015 $3.99N/A (N/A)0 .. 20,0000%00:00 (00:00)
55 Magical Eyes - Red is for Anguish Mar 30, 2016 $14.99N/A (N/A/77%)0 .. 20,0000%00:00 (00:00)
56 The Assembly Jul 19, 2016 $29.99N/A (N/A/55%)0 .. 20,0000%00:00 (00:00)
57 ADventure Lib Aug 4, 2015 $1.99N/A (N/A)0 .. 20,0000%00:00 (00:00)
58 The Youthdrainers Sep 18, 2016 N/AN/A (N/A)20,000 .. 50,0000%00:00 (00:00)
59 Tick's Tales Jun 9, 2016 $7.99N/A (N/A)0 .. 20,0000%00:00 (00:00)
60 Red Comrades Save the Galaxy: Reloaded Feb 18, 2016 $3.99N/A (N/A)50,000 .. 100,0000%00:00 (00:00)

Tags over time:

Access restricted.

This feature is only available to users with special access rights. Sorry.

If you want to proceed, you need to register or log in first and then back Steam Spy on Patreon. Look for Indie or Pro pledge.

Don't forget to use the same email as on Steam Spy!

If you've recently backed Steam Spy on Patreon, please note, that it might take around 15 minutes for your access rights to sync. In most cases you'll need to re-login on Steam Spy too.

Owners of this game also own:

Access restricted.

This feature is only available to users with special access rights. Sorry.

If you want to proceed, you need to register or log in first and then back Steam Spy on Patreon. Look for Indie or Pro pledge.

Don't forget to use the same email as on Steam Spy!

If you've recently backed Steam Spy on Patreon, please note, that it might take around 15 minutes for your access rights to sync. In most cases you'll need to re-login on Steam Spy too.

Playtime distribution:

Access restricted.

This feature is only available to users with special access rights. Sorry.

If you want to proceed, you need to register or log in first and then back Steam Spy on Patreon. Look for Indie or Pro pledge.

Don't forget to use the same email as on Steam Spy!

If you've recently backed Steam Spy on Patreon, please note, that it might take around 15 minutes for your access rights to sync. In most cases you'll need to re-login on Steam Spy too.

Playtime (2 weeks):

Access restricted.

This feature is only available to users with special access rights. Sorry.

If you want to proceed, you need to register or log in first and then back Steam Spy on Patreon. Look for Indie or Pro pledge.

Don't forget to use the same email as on Steam Spy!

If you've recently backed Steam Spy on Patreon, please note, that it might take around 15 minutes for your access rights to sync. In most cases you'll need to re-login on Steam Spy too.

User reviews:

Login required.

Please register or log in to see this information.